ビリニュス の空港の天気 - METARとTAF

ビリニュス国際空港 ( EYVI / VNO ) - リトアニア ビリニュス
飛行場実況気象(Metar)
観測時間07/17 11:50 EEST (07/17 08:50 UTC)
風向・風速西北西 4m/s
視程10km以上
天気現象
全天の8割程度の雲 雲底高度 460m
全天の8割程度の雲 雲底高度 3660m
気温15℃
湿度72%
気圧1006hPa
METAREYVI 170850Z 29007KT 9999 BKN015 BKN120 15/10 Q1006 NOSIG
過去の天気等 Google飛行場航空写真 Wunderground天気予報

過去48時間のMETAR

飛行場予報(TAF)
発表時間: 7/17 08:15 EEST (7/17 05:15 UTC)
予報対象時間: 17日9時 EEST ~ 18日9時 EEST
風向・風速西北西 7m/s
視程9000m
全天の8割程度の雲 雲底高度 150m
全天の8割程度の雲 雲底高度 610m
17日9時 EEST ~ 17日12時 EEST に一時的に
視程3000m
天気現象弱い雨 もや
全天の8割程度の雲 雲底高度 60m
17日12時 EEST ~ 17日18時 EEST に一時的に
視程3000m
天気現象雷雨
全天の8割程度の積乱雲 雲底高度 460m
17日18時 EEST ~ 17日24時 EEST に一時的に
視程1500m
天気現象雷雨
全天の8割程度の積乱雲 雲底高度 460m
18日0時 EEST ~ 18日1時 EEST に徐々に
視程5000m
天気現象もや
18日3時 EEST ~ 18日9時 EEST に一時的に
視程600m
天気現象
全天を覆う雲 鉛直視程 60m
TAF EYVI 170515Z 1706/1806 30014KT 9000 BKN005 BKN020
TEMPO 1706/1709 3000 -RA BR BKN002
TEMPO 1709/1715 3000 TSRA BKN015CB
TEMPO 1715/1721 1500 TSRA BKN015CB
BECMG 1721/1722 5000 BR
TEMPO 1800/1806 0600 FG VV002